createdAt,value
2023-02-27T00:01:31.075Z,100357.00
2023-02-27T00:03:04.672Z,100349.00
2023-02-27T00:04:37.982Z,100355.00
2023-02-27T00:06:11.461Z,100357.00
2023-02-27T00:07:43.659Z,100359.00
2023-02-27T00:09:16.740Z,100354.00
2023-02-27T00:10:50.461Z,100350.00
2023-02-27T00:12:23.528Z,100366.00
2023-02-27T00:13:56.843Z,100351.00
2023-02-27T00:15:30.738Z,100361.00
2023-02-27T00:17:08.810Z,100365.00
2023-02-27T00:18:42.797Z,100357.00
2023-02-27T00:20:19.083Z,100355.00
2023-02-27T00:21:52.832Z,100355.00
2023-02-27T00:23:26.054Z,100357.00
2023-02-27T00:24:59.372Z,100364.00
2023-02-27T00:26:33.063Z,100356.00
2023-02-27T00:28:06.421Z,100359.00
2023-02-27T00:29:39.605Z,100363.00
2023-02-27T00:31:12.828Z,100347.00
2023-02-27T00:32:46.431Z,100355.00
2023-02-27T00:34:20.403Z,100359.00
2023-02-27T00:35:57.862Z,100356.00
2023-02-27T00:37:30.980Z,100356.00
2023-02-27T00:39:04.839Z,100365.00
2023-02-27T00:40:37.937Z,100361.00
2023-02-27T00:42:11.401Z,100358.00
2023-02-27T00:43:44.550Z,100352.00
2023-02-27T00:45:19.660Z,100346.00
2023-02-27T00:46:54.216Z,100363.00
2023-02-27T00:48:28.850Z,100348.00
2023-02-27T00:50:02.691Z,100354.00
2023-02-27T00:51:35.841Z,100361.00
2023-02-27T00:53:09.901Z,100358.00
2023-02-27T00:54:43.323Z,100358.00
2023-02-27T00:56:17.276Z,100367.00
2023-02-27T00:57:51.477Z,100363.00
2023-02-27T00:59:24.668Z,100364.00
2023-02-27T01:01:01.574Z,100365.00
2023-02-27T01:02:35.195Z,100352.00
2023-02-27T01:04:10.017Z,100356.00
2023-02-27T01:05:43.174Z,100369.00
2023-02-27T01:07:15.563Z,100361.00
2023-02-27T01:08:48.699Z,100360.00
2023-02-27T01:10:22.537Z,100375.00
2023-02-27T01:11:57.450Z,100379.00
2023-02-27T01:13:30.564Z,100361.00
2023-02-27T01:15:06.677Z,100369.00
2023-02-27T01:16:40.271Z,100364.00
2023-02-27T01:18:14.693Z,100360.00
2023-02-27T01:19:49.154Z,100370.00
2023-02-27T01:21:22.732Z,100360.00
2023-02-27T01:22:55.929Z,100368.00
2023-02-27T01:24:29.048Z,100358.00
2023-02-27T01:26:02.209Z,100366.00
2023-02-27T01:27:36.284Z,100372.00
2023-02-27T01:29:11.313Z,100366.00
2023-02-27T01:30:45.454Z,100356.00
2023-02-27T01:32:20.810Z,100359.00
2023-02-27T01:33:53.991Z,100356.00
2023-02-27T01:35:27.758Z,100355.00
2023-02-27T01:37:00.955Z,100358.00
2023-02-27T01:38:33.153Z,100354.00
2023-02-27T01:40:08.862Z,100359.00
2023-02-27T01:41:42.076Z,100363.00
2023-02-27T01:43:20.910Z,100357.00
2023-02-27T01:45:27.379Z,100349.00
2023-02-27T01:47:00.554Z,100357.00
2023-02-27T01:48:39.057Z,100363.00
2023-02-27T01:50:13.399Z,100363.00
2023-02-27T01:51:52.818Z,100365.00
2023-02-27T01:53:30.145Z,100364.00
2023-02-27T01:55:05.176Z,100369.00
2023-02-27T01:56:39.229Z,100364.00
2023-02-27T01:58:15.539Z,100366.00
2023-02-27T01:59:48.802Z,100361.00
2023-02-27T02:01:24.255Z,100367.00
2023-02-27T02:03:08.864Z,100366.00
2023-02-27T02:04:43.527Z,100368.00
2023-02-27T02:06:18.151Z,100366.00
2023-02-27T02:07:55.105Z,100372.00
2023-02-27T02:09:31.270Z,100359.00
2023-02-27T02:11:07.465Z,100351.00
2023-02-27T02:12:41.964Z,100357.00
2023-02-27T02:14:16.432Z,100353.00
2023-02-27T02:16:12.631Z,100356.00
2023-02-27T02:17:58.330Z,100352.00
2023-02-27T02:20:23.679Z,100355.00
2023-02-27T02:22:36.544Z,100357.00
2023-02-27T02:25:06.201Z,100354.00
2023-02-27T02:27:09.032Z,100361.00
2023-02-27T02:29:39.564Z,100357.00
2023-02-27T02:31:50.135Z,100353.00
2023-02-27T02:34:01.138Z,100354.00
2023-02-27T02:36:17.471Z,100354.00
2023-02-27T02:38:30.679Z,100351.00
2023-02-27T02:40:37.573Z,100369.00
2023-02-27T02:42:23.107Z,100353.00
2023-02-27T02:44:08.593Z,100357.00
2023-02-27T02:45:50.954Z,100357.00
2023-02-27T02:47:36.634Z,100359.00
2023-02-27T02:49:24.599Z,100364.00
2023-02-27T02:51:06.996Z,100360.00
2023-02-27T02:52:59.034Z,100361.00
2023-02-27T02:54:41.436Z,100364.00
2023-02-27T02:56:24.809Z,100368.00
2023-02-27T02:58:08.371Z,100364.00
2023-02-27T02:59:50.390Z,100354.00
2023-02-27T03:01:29.565Z,100362.00
2023-02-27T03:03:13.806Z,100355.00
2023-02-27T03:04:54.724Z,100353.00
2023-02-27T03:06:33.335Z,100357.00
2023-02-27T03:08:13.303Z,100367.00
2023-02-27T03:09:53.816Z,100347.00
2023-02-27T03:11:37.566Z,100353.00
2023-02-27T03:13:18.825Z,100355.00
2023-02-27T03:14:57.492Z,100352.00
2023-02-27T03:16:37.586Z,100361.00
2023-02-27T03:18:20.412Z,100366.00
2023-02-27T03:19:58.900Z,100367.00
2023-02-27T03:21:40.393Z,100376.00
2023-02-27T03:23:19.821Z,100374.00
2023-02-27T03:24:58.271Z,100369.00
2023-02-27T03:26:38.982Z,100363.00
2023-02-27T03:28:21.013Z,100366.00
2023-02-27T03:30:04.296Z,100367.00
2023-02-27T03:31:45.938Z,100366.00
2023-02-27T03:33:27.034Z,100370.00
2023-02-27T03:35:01.990Z,100371.00
2023-02-27T03:36:47.087Z,100379.00
2023-02-27T03:38:32.921Z,100374.00
2023-02-27T03:40:20.833Z,100372.00
2023-02-27T03:42:03.999Z,100379.00
2023-02-27T03:44:06.025Z,100386.00
2023-02-27T03:45:52.312Z,100387.00
2023-02-27T03:47:25.866Z,100383.00
2023-02-27T03:48:59.068Z,100380.00
2023-02-27T03:50:31.372Z,100388.00
2023-02-27T03:52:04.967Z,100391.00
2023-02-27T03:53:44.825Z,100392.00
2023-02-27T03:55:22.252Z,100391.00
2023-02-27T03:57:02.214Z,100389.00
2023-02-27T03:58:36.895Z,100386.00
2023-02-27T04:00:19.701Z,100391.00
2023-02-27T04:01:56.131Z,100390.00
2023-02-27T04:03:34.936Z,100388.00
2023-02-27T04:05:09.838Z,100389.00
2023-02-27T04:07:13.762Z,100394.00
2023-02-27T04:09:05.530Z,100395.00
2023-02-27T04:11:00.256Z,100396.00
2023-02-27T04:13:21.537Z,100394.00
2023-02-27T04:15:13.943Z,100398.00
2023-02-27T04:17:18.661Z,100398.00
2023-02-27T04:19:15.894Z,100393.00
2023-02-27T04:20:58.296Z,100390.00
2023-02-27T04:22:38.094Z,100391.00
2023-02-27T04:24:23.693Z,100393.00
2023-02-27T04:26:14.405Z,100396.00
2023-02-27T04:27:59.271Z,100399.00
2023-02-27T04:29:49.725Z,100397.00
2023-02-27T04:31:31.952Z,100395.00
2023-02-27T04:33:13.795Z,100404.00
2023-02-27T04:34:53.157Z,100405.00
2023-02-27T04:36:33.529Z,100416.00
2023-02-27T04:38:17.500Z,100406.00
2023-02-27T04:39:58.607Z,100415.00
2023-02-27T04:41:38.250Z,100409.00
2023-02-27T04:43:16.089Z,100403.00
2023-02-27T04:44:52.973Z,100411.00
2023-02-27T04:46:31.198Z,100412.00
2023-02-27T04:48:12.370Z,100419.00
2023-02-27T04:49:52.575Z,100415.00
2023-02-27T04:51:34.410Z,100415.00
2023-02-27T04:53:16.888Z,100421.00
2023-02-27T04:54:57.353Z,100413.00
2023-02-27T04:56:35.844Z,100412.00
2023-02-27T04:58:15.383Z,100416.00
2023-02-27T04:59:55.055Z,100418.00
2023-02-27T05:01:38.878Z,100424.00
2023-02-27T05:03:18.210Z,100420.00
2023-02-27T05:04:54.876Z,100418.00
2023-02-27T05:06:32.534Z,100432.00
2023-02-27T05:08:12.045Z,100425.00
2023-02-27T05:09:53.119Z,100417.00
2023-02-27T05:11:32.544Z,100423.00
2023-02-27T05:13:14.368Z,100440.00
2023-02-27T05:14:54.923Z,100439.00
2023-02-27T05:16:36.084Z,100429.00
2023-02-27T05:18:13.196Z,100435.00
2023-02-27T05:19:48.152Z,100432.00
2023-02-27T05:21:30.527Z,100444.00
2023-02-27T05:23:15.882Z,100445.00
2023-02-27T05:24:58.419Z,100438.00
2023-02-27T05:26:55.203Z,100438.00
2023-02-27T05:28:39.029Z,100441.00
2023-02-27T05:30:25.335Z,100432.00
2023-02-27T05:32:08.705Z,100445.00
2023-02-27T05:33:54.468Z,100436.00
2023-02-27T05:35:35.070Z,100445.00
2023-02-27T05:37:16.817Z,100445.00
2023-02-27T05:38:57.884Z,100445.00
2023-02-27T05:40:38.377Z,100447.00
2023-02-27T05:42:19.252Z,100440.00
2023-02-27T05:43:58.895Z,100454.00
2023-02-27T05:45:34.894Z,100455.00
2023-02-27T05:47:17.191Z,100445.00
2023-02-27T05:48:57.287Z,100452.00
2023-02-27T05:50:34.640Z,100452.00
2023-02-27T05:52:16.236Z,100453.00
2023-02-27T05:53:59.157Z,100468.00
2023-02-27T05:55:38.913Z,100462.00
2023-02-27T05:57:22.436Z,100456.00
2023-02-27T05:59:05.933Z,100454.00
2023-02-27T06:00:44.635Z,100468.00
2023-02-27T06:02:18.823Z,100464.00
2023-02-27T06:03:53.966Z,100470.00
2023-02-27T06:05:29.459Z,100463.00
2023-02-27T06:07:06.396Z,100468.00
2023-02-27T06:08:40.904Z,100472.00
2023-02-27T06:10:19.384Z,100464.00
2023-02-27T06:11:52.492Z,100467.00
2023-02-27T06:13:26.944Z,100469.00
2023-02-27T06:15:01.686Z,100473.00
2023-02-27T06:16:38.077Z,100469.00
2023-02-27T06:18:12.309Z,100472.00
2023-02-27T06:19:45.609Z,100477.00
2023-02-27T06:21:18.706Z,100476.00
2023-02-27T06:22:52.300Z,100477.00
2023-02-27T06:24:26.812Z,100487.00
2023-02-27T06:26:00.231Z,100489.00
2023-02-27T06:27:33.370Z,100482.00
2023-02-27T06:29:06.804Z,100489.00
2023-02-27T06:30:41.638Z,100487.00
2023-02-27T06:32:14.903Z,100493.00
2023-02-27T06:33:48.049Z,100492.00
2023-02-27T06:35:21.731Z,100497.00
2023-02-27T06:36:54.970Z,100483.00
2023-02-27T06:38:28.270Z,100493.00
2023-02-27T06:40:01.408Z,100490.00
2023-02-27T06:41:35.053Z,100482.00
2023-02-27T06:43:08.168Z,100490.00
2023-02-27T06:44:41.559Z,100495.00
2023-02-27T06:46:16.339Z,100507.00
2023-02-27T06:47:49.475Z,100497.00
2023-02-27T06:49:22.925Z,100493.00
2023-02-27T06:50:57.585Z,100499.00
2023-02-27T06:52:30.695Z,100517.00
2023-02-27T06:54:04.190Z,100514.00
2023-02-27T06:55:37.533Z,100515.00
2023-02-27T06:57:10.985Z,100516.00
2023-02-27T06:58:45.020Z,100515.00
2023-02-27T07:00:19.495Z,100521.00
2023-02-27T07:01:54.181Z,100521.00
2023-02-27T07:03:27.373Z,100521.00
2023-02-27T07:05:00.548Z,100522.00
2023-02-27T07:07:35.072Z,100528.00
2023-02-27T07:08:35.882Z,100529.00
2023-02-27T07:10:12.779Z,100520.00
2023-02-27T07:11:45.902Z,100530.00
2023-02-27T07:13:19.967Z,100533.00
2023-02-27T07:14:53.748Z,100537.00
2023-02-27T07:16:27.597Z,100542.00
2023-02-27T07:18:02.489Z,100540.00
2023-02-27T07:19:37.148Z,100535.00
2023-02-27T07:21:10.345Z,100538.00
2023-02-27T07:22:43.597Z,100532.00
2023-02-27T07:24:17.310Z,100534.00
2023-02-27T07:25:51.033Z,100535.00
2023-02-27T07:27:24.255Z,100536.00
2023-02-27T07:28:57.389Z,100545.00
2023-02-27T07:30:31.013Z,100541.00
2023-02-27T07:32:04.487Z,100550.00
2023-02-27T07:33:39.076Z,100544.00
2023-02-27T07:35:13.486Z,100556.00
2023-02-27T07:36:46.629Z,100546.00
2023-02-27T07:38:22.315Z,100544.00
2023-02-27T07:39:55.962Z,100555.00
2023-02-27T07:41:30.951Z,100549.00
2023-02-27T07:43:06.789Z,100561.00
2023-02-27T07:44:40.553Z,100549.00
2023-02-27T07:46:13.686Z,100542.00
2023-02-27T07:47:47.176Z,100544.00
2023-02-27T07:49:21.876Z,100544.00
2023-02-27T07:50:55.323Z,100543.00
2023-02-27T07:54:06.740Z,100540.00
2023-02-27T07:55:40.271Z,100541.00
2023-02-27T07:57:13.725Z,100543.00
2023-02-27T07:58:46.864Z,100538.00
2023-02-27T08:00:22.112Z,100540.00
2023-02-27T08:01:55.801Z,100544.00
2023-02-27T08:03:28.962Z,100541.00
2023-02-27T08:05:03.772Z,100535.00
2023-02-27T08:06:36.841Z,100542.00
2023-02-27T08:08:09.996Z,100535.00
2023-02-27T08:09:43.126Z,100554.00
2023-02-27T08:11:16.672Z,100543.00
2023-02-27T08:12:49.788Z,100546.00
2023-02-27T08:14:23.413Z,100549.00
2023-02-27T08:15:56.767Z,100545.00
2023-02-27T08:17:29.951Z,100553.00
2023-02-27T08:19:03.206Z,100554.00
2023-02-27T08:20:37.948Z,100543.00
2023-02-27T08:22:12.272Z,100536.00
2023-02-27T08:23:47.559Z,100535.00
2023-02-27T08:25:21.639Z,100533.00
2023-02-27T08:26:55.103Z,100537.00
2023-02-27T08:28:29.253Z,100541.00
2023-02-27T08:30:02.623Z,100536.00
2023-02-27T08:31:36.056Z,100546.00
2023-02-27T08:33:09.512Z,100542.00
2023-02-27T08:34:42.782Z,100532.00
2023-02-27T08:36:17.673Z,100530.00
2023-02-27T08:37:50.889Z,100547.00
2023-02-27T08:39:25.046Z,100542.00
2023-02-27T08:40:58.447Z,100542.00
2023-02-27T08:42:31.563Z,100550.00
2023-02-27T08:44:05.402Z,100545.00
2023-02-27T08:45:38.671Z,100551.00
2023-02-27T08:47:12.543Z,100559.00
2023-02-27T08:48:45.823Z,100564.00
2023-02-27T08:50:19.402Z,100552.00
2023-02-27T08:51:54.820Z,100557.00
2023-02-27T08:53:30.047Z,100544.00
2023-02-27T08:55:03.412Z,100546.00
2023-02-27T08:56:36.620Z,100543.00
2023-02-27T08:58:10.612Z,100545.00
2023-02-27T08:59:43.763Z,100553.00
2023-02-27T09:01:17.057Z,100551.00
2023-02-27T09:02:50.888Z,100549.00
2023-02-27T09:04:24.096Z,100551.00
2023-02-27T09:05:58.280Z,100545.00
2023-02-27T09:07:34.388Z,100540.00
2023-02-27T09:09:08.196Z,100542.00
2023-02-27T09:10:41.798Z,100544.00
2023-02-27T09:12:15.399Z,100544.00
2023-02-27T09:13:48.699Z,100542.00
2023-02-27T09:15:22.189Z,100544.00
2023-02-27T09:16:55.553Z,100549.00
2023-02-27T09:18:29.359Z,100533.00
2023-02-27T09:20:03.886Z,100538.00
2023-02-27T09:21:37.529Z,100544.00
2023-02-27T09:23:12.687Z,100532.00
2023-02-27T09:24:45.866Z,100524.00
2023-02-27T09:26:19.450Z,100534.00
2023-02-27T09:27:52.789Z,100534.00
2023-02-27T09:29:27.473Z,100526.00
2023-02-27T09:31:02.035Z,100535.00
2023-02-27T09:32:35.205Z,100532.00
2023-02-27T09:34:08.559Z,100531.00
2023-02-27T09:35:41.796Z,100537.00
2023-02-27T09:37:15.663Z,100532.00
2023-02-27T09:38:50.307Z,100539.00
2023-02-27T09:40:28.883Z,100543.00
2023-02-27T09:42:06.326Z,100537.00
2023-02-27T09:43:45.145Z,100528.00
2023-02-27T09:45:24.811Z,100535.00
2023-02-27T09:46:58.175Z,100532.00
2023-02-27T09:48:39.059Z,100539.00
2023-02-27T09:50:29.629Z,100527.00
2023-02-27T09:52:03.515Z,100532.00
2023-02-27T09:53:42.273Z,100537.00
2023-02-27T09:55:24.588Z,100535.00
2023-02-27T09:57:03.678Z,100547.00
2023-02-27T09:58:47.244Z,100541.00
2023-02-27T10:00:47.182Z,100541.00
2023-02-27T10:02:43.249Z,100534.00
2023-02-27T10:04:33.676Z,100536.00
2023-02-27T10:06:23.890Z,100534.00
2023-02-27T10:08:06.795Z,100539.00
2023-02-27T10:09:53.606Z,100536.00
2023-02-27T10:11:43.074Z,100529.00
2023-02-27T10:13:41.309Z,100541.00
2023-02-27T10:15:25.023Z,100552.00
2023-02-27T10:17:02.913Z,100555.00
2023-02-27T10:18:49.339Z,100553.00
2023-02-27T10:20:29.697Z,100554.00
2023-02-27T10:22:08.776Z,100547.00
2023-02-27T10:23:47.787Z,100544.00
2023-02-27T10:26:46.741Z,100549.00
2023-02-27T10:28:22.735Z,100543.00
2023-02-27T10:30:29.567Z,100554.00
2023-02-27T10:32:11.100Z,100544.00
2023-02-27T10:33:48.000Z,100543.00
2023-02-27T10:35:33.128Z,100555.00
2023-02-27T10:37:07.951Z,100553.00
2023-02-27T10:38:46.491Z,100546.00
2023-02-27T10:40:21.425Z,100543.00
2023-02-27T10:42:00.560Z,100544.00
2023-02-27T10:43:33.732Z,100550.00
2023-02-27T10:45:16.839Z,100545.00
2023-02-27T10:46:52.027Z,100552.00
2023-02-27T10:48:25.505Z,100544.00
2023-02-27T10:50:00.380Z,100553.00
2023-02-27T10:51:38.091Z,100550.00
2023-02-27T10:53:22.643Z,100544.00
2023-02-27T10:54:56.133Z,100548.00
2023-02-27T10:56:32.402Z,100535.00
2023-02-27T10:58:08.516Z,100551.00
2023-02-27T10:59:42.919Z,100547.00
2023-02-27T11:01:16.406Z,100550.00
2023-02-27T11:02:53.108Z,100539.00
2023-02-27T11:04:32.868Z,100537.00
2023-02-27T11:06:13.171Z,100530.00
2023-02-27T11:07:46.630Z,100536.00
2023-02-27T11:09:23.585Z,100543.00
2023-02-27T11:11:03.717Z,100527.00
2023-02-27T11:12:37.284Z,100525.00
2023-02-27T11:14:36.468Z,100513.00
2023-02-27T11:16:16.389Z,100516.00
2023-02-27T11:17:49.962Z,100511.00
2023-02-27T11:19:33.275Z,100504.00
2023-02-27T11:21:24.379Z,100501.00
2023-02-27T11:23:05.717Z,100506.00
2023-02-27T11:24:38.878Z,100516.00
2023-02-27T11:26:17.961Z,100509.00
2023-02-27T11:27:52.403Z,100509.00
2023-02-27T11:29:28.303Z,100506.00
2023-02-27T11:31:05.542Z,100511.00
2023-02-27T11:32:45.784Z,100510.00
2023-02-27T11:34:25.737Z,100506.00
2023-02-27T11:36:00.498Z,100515.00
2023-02-27T11:37:38.102Z,100509.00
2023-02-27T11:39:27.325Z,100515.00
2023-02-27T11:41:03.524Z,100514.00
2023-02-27T11:42:42.679Z,100503.00
2023-02-27T11:44:34.009Z,100509.00
2023-02-27T11:46:46.804Z,100500.00
2023-02-27T11:48:23.385Z,100505.00
2023-02-27T11:50:34.269Z,100497.00
2023-02-27T11:52:20.969Z,100507.00
2023-02-27T11:54:10.535Z,100505.00
2023-02-27T11:55:46.267Z,100503.00
2023-02-27T11:57:27.147Z,100492.00
2023-02-27T11:59:14.266Z,100499.00
2023-02-27T12:00:53.859Z,100494.00
2023-02-27T12:02:44.764Z,100490.00
2023-02-27T12:04:27.966Z,100492.00
2023-02-27T12:06:10.413Z,100484.00
2023-02-27T12:07:51.971Z,100490.00
2023-02-27T12:09:40.636Z,100487.00
2023-02-27T12:11:25.093Z,100476.00
2023-02-27T12:13:05.210Z,100467.00
2023-02-27T12:14:49.760Z,100486.00
2023-02-27T12:16:34.008Z,100477.00
2023-02-27T12:18:19.336Z,100466.00
2023-02-27T12:20:09.421Z,100459.00
2023-02-27T12:21:49.490Z,100467.00
2023-02-27T12:23:33.299Z,100458.00
2023-02-27T12:25:15.179Z,100455.00
2023-02-27T12:26:56.832Z,100459.00
2023-02-27T12:28:49.073Z,100464.00
2023-02-27T12:30:27.983Z,100462.00
2023-02-27T12:32:08.952Z,100451.00
2023-02-27T12:33:53.363Z,100450.00
2023-02-27T12:35:33.192Z,100459.00
2023-02-27T12:37:13.356Z,100457.00
2023-02-27T12:38:46.659Z,100455.00
2023-02-27T12:40:29.396Z,100459.00
2023-02-27T12:42:47.611Z,100461.00
2023-02-27T12:44:43.681Z,100449.00
2023-02-27T12:46:34.576Z,100445.00
2023-02-27T12:48:23.110Z,100451.00
2023-02-27T12:50:04.932Z,100444.00
2023-02-27T12:51:52.850Z,100466.00
2023-02-27T12:53:52.848Z,100459.00
2023-02-27T12:55:31.820Z,100467.00
2023-02-27T12:57:47.307Z,100458.00
2023-02-27T12:59:44.405Z,100461.00
2023-02-27T13:01:37.647Z,100470.00
2023-02-27T13:03:20.485Z,100465.00
2023-02-27T13:05:10.023Z,100461.00
2023-02-27T13:06:51.012Z,100457.00
2023-02-27T13:09:12.033Z,100464.00
2023-02-27T13:10:52.507Z,100464.00
2023-02-27T13:12:35.736Z,100457.00
2023-02-27T13:14:26.919Z,100458.00
2023-02-27T13:16:04.645Z,100461.00
2023-02-27T13:17:46.329Z,100459.00
2023-02-27T13:19:28.978Z,100460.00
2023-02-27T13:21:13.341Z,100450.00
2023-02-27T13:22:58.519Z,100463.00
2023-02-27T13:24:34.561Z,100462.00
2023-02-27T13:26:22.458Z,100457.00
2023-02-27T13:28:03.747Z,100458.00
2023-02-27T13:29:41.097Z,100461.00
2023-02-27T13:31:25.507Z,100467.00
2023-02-27T13:33:17.836Z,100460.00
2023-02-27T13:34:56.268Z,100452.00
2023-02-27T13:36:40.051Z,100461.00
2023-02-27T13:38:42.463Z,100448.00
2023-02-27T13:40:36.059Z,100459.00
2023-02-27T13:42:54.829Z,100447.00
2023-02-27T13:44:49.381Z,100450.00
2023-02-27T13:46:24.918Z,100453.00
2023-02-27T13:47:58.106Z,100453.00
2023-02-27T13:49:42.934Z,100450.00
2023-02-27T13:51:53.032Z,100454.00
2023-02-27T13:53:27.901Z,100458.00
2023-02-27T13:55:11.849Z,100460.00
2023-02-27T13:56:50.540Z,100459.00
2023-02-27T13:58:25.663Z,100459.00
2023-02-27T14:00:08.485Z,100463.00
2023-02-27T14:01:55.090Z,100461.00
2023-02-27T14:03:32.348Z,100462.00
2023-02-27T14:05:09.446Z,100451.00
2023-02-27T14:06:47.189Z,100457.00
2023-02-27T14:08:26.482Z,100449.00
2023-02-27T14:10:07.750Z,100449.00
2023-02-27T14:11:41.887Z,100454.00
2023-02-27T14:13:59.269Z,100459.00
2023-02-27T14:16:00.848Z,100457.00
2023-02-27T14:17:45.380Z,100445.00
2023-02-27T14:19:50.318Z,100450.00
2023-02-27T14:21:55.668Z,100456.00
2023-02-27T14:23:31.271Z,100448.00
2023-02-27T14:25:19.340Z,100453.00
2023-02-27T14:26:55.420Z,100453.00
2023-02-27T14:28:33.423Z,100452.00
2023-02-27T14:30:22.849Z,100446.00
2023-02-27T14:31:57.197Z,100459.00
2023-02-27T14:33:41.345Z,100452.00
2023-02-27T14:35:17.892Z,100462.00
2023-02-27T14:36:56.617Z,100460.00
2023-02-27T14:38:33.118Z,100464.00
2023-02-27T14:40:07.988Z,100460.00
2023-02-27T14:41:51.381Z,100462.00
2023-02-27T14:43:37.414Z,100457.00
2023-02-27T14:45:18.963Z,100463.00
2023-02-27T14:46:56.736Z,100450.00
2023-02-27T14:48:33.787Z,100452.00
2023-02-27T14:50:24.344Z,100450.00
2023-02-27T14:51:58.372Z,100445.00
2023-02-27T14:53:33.092Z,100457.00
2023-02-27T14:55:18.805Z,100458.00
2023-02-27T14:56:57.648Z,100444.00
2023-02-27T14:58:30.866Z,100443.00
2023-02-27T15:00:05.830Z,100452.00
2023-02-27T15:01:39.268Z,100446.00
2023-02-27T15:03:20.891Z,100447.00
2023-02-27T15:05:15.652Z,100442.00
2023-02-27T15:06:52.046Z,100441.00
2023-02-27T15:08:30.063Z,100443.00
2023-02-27T15:10:09.358Z,100448.00
2023-02-27T15:11:46.510Z,100450.00
2023-02-27T15:13:28.662Z,100453.00
2023-02-27T15:15:07.670Z,100448.00
2023-02-27T15:16:42.619Z,100454.00
2023-02-27T15:18:18.106Z,100457.00
2023-02-27T15:19:53.821Z,100457.00
2023-02-27T15:21:32.122Z,100456.00
2023-02-27T15:23:25.961Z,100475.00
2023-02-27T15:25:01.054Z,100468.00
2023-02-27T15:26:40.927Z,100461.00
2023-02-27T15:28:24.525Z,100461.00
2023-02-27T15:30:01.657Z,100468.00
2023-02-27T15:31:35.993Z,100457.00
2023-02-27T15:33:16.444Z,100467.00
2023-02-27T15:34:49.832Z,100473.00
2023-02-27T15:36:26.939Z,100465.00
2023-02-27T15:38:02.406Z,100475.00
2023-02-27T15:39:37.876Z,100470.00
2023-02-27T15:41:14.666Z,100467.00
2023-02-27T15:42:50.240Z,100466.00
2023-02-27T15:44:28.417Z,100474.00
2023-02-27T15:46:02.196Z,100459.00
2023-02-27T15:47:37.058Z,100466.00
2023-02-27T15:49:21.463Z,100466.00
2023-02-27T15:50:58.793Z,100464.00
2023-02-27T15:52:42.066Z,100467.00
2023-02-27T15:54:15.958Z,100476.00
2023-02-27T15:55:54.315Z,100464.00
2023-02-27T15:57:28.091Z,100476.00
2023-02-27T15:59:05.272Z,100477.00
2023-02-27T16:00:38.957Z,100476.00
2023-02-27T16:02:21.406Z,100481.00
2023-02-27T16:03:58.510Z,100477.00
2023-02-27T16:05:37.056Z,100483.00
2023-02-27T16:07:20.320Z,100493.00
2023-02-27T16:08:58.429Z,100487.00
2023-02-27T16:10:38.902Z,100472.00
2023-02-27T16:12:24.838Z,100490.00
2023-02-27T16:13:59.044Z,100487.00
2023-02-27T16:15:36.335Z,100490.00
2023-02-27T16:17:29.392Z,100478.00
2023-02-27T16:19:16.576Z,100475.00
2023-02-27T16:20:54.908Z,100481.00
2023-02-27T16:22:30.337Z,100486.00
2023-02-27T16:24:20.776Z,100482.00
2023-02-27T16:26:18.022Z,100488.00
2023-02-27T16:27:52.373Z,100488.00
2023-02-27T16:29:34.469Z,100490.00
2023-02-27T16:31:26.438Z,100492.00
2023-02-27T16:33:02.693Z,100490.00
2023-02-27T16:34:45.577Z,100494.00
2023-02-27T16:36:27.788Z,100499.00
2023-02-27T16:38:14.240Z,100494.00
2023-02-27T16:39:57.823Z,100495.00
2023-02-27T16:41:37.529Z,100494.00
2023-02-27T16:45:24.406Z,100493.00
2023-02-27T16:47:13.208Z,100486.00
2023-02-27T16:49:17.972Z,100488.00
2023-02-27T16:51:05.200Z,100499.00
2023-02-27T16:52:46.114Z,100496.00
2023-02-27T16:54:31.330Z,100499.00
2023-02-27T16:56:21.472Z,100496.00
2023-02-27T16:58:02.957Z,100497.00
2023-02-27T16:59:44.805Z,100497.00
2023-02-27T17:01:38.522Z,100492.00
2023-02-27T17:03:22.653Z,100500.00
2023-02-27T17:05:08.253Z,100498.00
2023-02-27T17:06:41.878Z,100505.00
2023-02-27T17:08:16.545Z,100506.00
2023-02-27T17:09:50.326Z,100503.00
2023-02-27T17:11:23.481Z,100508.00
2023-02-27T17:12:56.785Z,100511.00
2023-02-27T17:14:29.938Z,100522.00
2023-02-27T17:16:03.390Z,100513.00
2023-02-27T17:17:36.524Z,100508.00
2023-02-27T17:19:11.023Z,100511.00
2023-02-27T17:20:44.331Z,100515.00
2023-02-27T17:22:17.566Z,100508.00
2023-02-27T17:23:50.746Z,100515.00
2023-02-27T17:25:25.585Z,100524.00
2023-02-27T17:26:58.833Z,100526.00
2023-02-27T17:28:32.813Z,100522.00
2023-02-27T17:30:08.522Z,100520.00
2023-02-27T17:31:43.058Z,100526.00
2023-02-27T17:33:16.394Z,100527.00
2023-02-27T17:34:54.721Z,100529.00
2023-02-27T17:36:28.210Z,100528.00
2023-02-27T17:38:01.454Z,100524.00
2023-02-27T17:39:34.644Z,100533.00
2023-02-27T17:41:08.986Z,100528.00
2023-02-27T17:42:42.188Z,100534.00
2023-02-27T17:44:15.938Z,100535.00
2023-02-27T17:45:49.111Z,100533.00
2023-02-27T17:47:22.385Z,100534.00
2023-02-27T17:48:59.979Z,100529.00
2023-02-27T17:50:34.625Z,100525.00
2023-02-27T17:52:08.055Z,100531.00
2023-02-27T17:53:41.655Z,100532.00
2023-02-27T17:55:16.541Z,100530.00
2023-02-27T17:56:49.766Z,100536.00
2023-02-27T17:58:23.007Z,100541.00
2023-02-27T17:59:56.273Z,100542.00
2023-02-27T18:01:29.570Z,100532.00
2023-02-27T18:03:02.867Z,100540.00
2023-02-27T18:04:36.066Z,100536.00
2023-02-27T18:06:11.328Z,100539.00
2023-02-27T18:07:44.566Z,100545.00
2023-02-27T18:09:18.149Z,100544.00
2023-02-27T18:10:53.130Z,100543.00
2023-02-27T18:12:28.675Z,100544.00
2023-02-27T18:14:02.203Z,100543.00
2023-02-27T18:15:35.471Z,100547.00
2023-02-27T18:17:11.912Z,100542.00
2023-02-27T18:18:45.678Z,100547.00
2023-02-27T18:20:19.545Z,100557.00
2023-02-27T18:21:54.174Z,100556.00
2023-02-27T18:23:28.019Z,100551.00
2023-02-27T18:25:01.321Z,100549.00
2023-02-27T18:26:35.189Z,100553.00
2023-02-27T18:28:10.895Z,100558.00
2023-02-27T18:29:44.662Z,100558.00
2023-02-27T18:31:25.319Z,100555.00
2023-02-27T18:32:59.355Z,100557.00
2023-02-27T18:34:32.799Z,100562.00
2023-02-27T18:36:06.853Z,100556.00
2023-02-27T18:37:41.443Z,100552.00
2023-02-27T18:39:15.047Z,100565.00
2023-02-27T18:40:48.294Z,100566.00
2023-02-27T18:42:21.482Z,100568.00
2023-02-27T18:43:54.881Z,100563.00
2023-02-27T18:45:29.463Z,100557.00
2023-02-27T18:47:02.653Z,100564.00
2023-02-27T18:48:36.042Z,100566.00
2023-02-27T18:50:10.862Z,100565.00
2023-02-27T18:51:44.220Z,100555.00
2023-02-27T18:53:19.548Z,100552.00
2023-02-27T18:54:52.809Z,100549.00
2023-02-27T18:56:30.221Z,100541.00
2023-02-27T18:58:06.060Z,100551.00
2023-02-27T18:59:41.126Z,100550.00
2023-02-27T19:01:22.822Z,100552.00
2023-02-27T19:02:56.171Z,100558.00